sensor_id;sensor_type;location;lat;lon;timestamp;pressure;altitude;pressure_sealevel;temperature;humidity
30856;BME280;17570;0.000;0.000;2023-02-24T00:02:25;97070.58;;;15.26;39.82
30856;BME280;17570;0.000;0.000;2023-02-24T00:04:54;97060.03;;;15.18;39.83
30856;BME280;17570;0.000;0.000;2023-02-24T00:07:22;97062.36;;;15.21;39.80
30856;BME280;17570;0.000;0.000;2023-02-24T00:09:49;97066.08;;;15.18;39.87
30856;BME280;17570;0.000;0.000;2023-02-24T00:12:17;97065.27;;;15.18;39.93
30856;BME280;17570;0.000;0.000;2023-02-24T00:14:46;97059.42;;;15.24;39.83
30856;BME280;17570;0.000;0.000;2023-02-24T00:17:13;97059.05;;;15.19;39.82
30856;BME280;17570;0.000;0.000;2023-02-24T00:19:41;97059.37;;;15.16;39.92
30856;BME280;17570;0.000;0.000;2023-02-24T00:22:09;97054.14;;;15.16;39.83
30856;BME280;17570;0.000;0.000;2023-02-24T00:24:36;97040.91;;;15.17;40.07
30856;BME280;17570;0.000;0.000;2023-02-24T00:27:04;97045.85;;;15.20;39.83
30856;BME280;17570;0.000;0.000;2023-02-24T00:29:36;97054.14;;;15.16;39.86
30856;BME280;17570;0.000;0.000;2023-02-24T00:32:05;97048.50;;;15.11;39.95
30856;BME280;17570;0.000;0.000;2023-02-24T00:34:34;97046.27;;;14.98;40.23
30856;BME280;17570;0.000;0.000;2023-02-24T00:37:02;97042.08;;;15.05;40.24
30856;BME280;17570;0.000;0.000;2023-02-24T00:39:31;97036.03;;;15.04;40.31
30856;BME280;17570;0.000;0.000;2023-02-24T00:42:01;97040.16;;;15.07;40.09
30856;BME280;17570;0.000;0.000;2023-02-24T00:44:34;97034.40;;;15.03;40.26
30856;BME280;17570;0.000;0.000;2023-02-24T00:47:03;97041.95;;;15.07;40.24
30856;BME280;17570;0.000;0.000;2023-02-24T00:49:32;97039.34;;;15.07;40.14
30856;BME280;17570;0.000;0.000;2023-02-24T00:52:02;97039.34;;;15.07;40.19
30856;BME280;17570;0.000;0.000;2023-02-24T00:54:36;97039.78;;;15.02;40.23
30856;BME280;17570;0.000;0.000;2023-02-24T00:57:04;97035.66;;;14.99;40.17
30856;BME280;17570;0.000;0.000;2023-02-24T00:59:33;97032.39;;;14.97;40.30
30856;BME280;17570;0.000;0.000;2023-02-24T01:02:02;97030.34;;;14.91;40.38
30856;BME280;17570;0.000;0.000;2023-02-24T01:04:31;97024.73;;;14.86;40.51
30856;BME280;17570;0.000;0.000;2023-02-24T01:06:59;97016.23;;;14.84;40.67
30856;BME280;17570;0.000;0.000;2023-02-24T01:09:28;97020.77;;;14.82;40.67
30856;BME280;17570;0.000;0.000;2023-02-24T01:11:56;97013.30;;;14.87;40.69
30856;BME280;17570;0.000;0.000;2023-02-24T01:14:29;97014.38;;;14.94;40.37
30856;BME280;17570;0.000;0.000;2023-02-24T01:16:58;97021.46;;;14.84;40.48
30856;BME280;17570;0.000;0.000;2023-02-24T01:19:29;97019.95;;;14.82;40.60
30856;BME280;17570;0.000;0.000;2023-02-24T01:22:00;97007.70;;;14.82;40.62
30856;BME280;17570;0.000;0.000;2023-02-24T01:24:34;97007.70;;;14.82;40.55
30856;BME280;17570;0.000;0.000;2023-02-24T01:26:58;97004.17;;;14.73;40.54
30856;BME280;17570;0.000;0.000;2023-02-24T01:29:26;97007.26;;;14.69;40.63
30856;BME280;17570;0.000;0.000;2023-02-24T01:31:54;97000.36;;;14.68;40.66
30856;BME280;17570;0.000;0.000;2023-02-24T01:34:24;96994.76;;;14.63;40.70
30856;BME280;17570;0.000;0.000;2023-02-24T01:36:53;97008.26;;;14.58;40.72
30856;BME280;17570;0.000;0.000;2023-02-24T01:39:20;97005.65;;;14.58;40.65
30856;BME280;17570;0.000;0.000;2023-02-24T01:41:49;97005.80;;;14.57;40.78
30856;BME280;17570;0.000;0.000;2023-02-24T01:46:52;96999.76;;;14.56;40.62
30856;BME280;17570;0.000;0.000;2023-02-24T01:49:31;97004.45;;;14.52;40.71
30856;BME280;17570;0.000;0.000;2023-02-24T01:51:53;97003.09;;;14.48;40.81
30856;BME280;17570;0.000;0.000;2023-02-24T01:54:24;96998.11;;;14.45;40.75
30856;BME280;17570;0.000;0.000;2023-02-24T01:56:52;96992.50;;;14.40;40.78
30856;BME280;17570;0.000;0.000;2023-02-24T01:59:20;96995.12;;;14.40;40.74
30856;BME280;17570;0.000;0.000;2023-02-24T02:01:48;96989.08;;;14.40;40.74
30856;BME280;17570;0.000;0.000;2023-02-24T02:04:19;96980.58;;;14.38;40.73
30856;BME280;17570;0.000;0.000;2023-02-24T02:06:48;96984.55;;;14.42;40.64
30856;BME280;17570;0.000;0.000;2023-02-24T02:09:15;96986.34;;;14.41;40.40
30856;BME280;17570;0.000;0.000;2023-02-24T02:11:43;96983.34;;;14.36;40.32
30856;BME280;17570;0.000;0.000;2023-02-24T02:14:15;96982.11;;;14.30;40.43
30856;BME280;17570;0.000;0.000;2023-02-24T02:24:38;96991.16;;;14.09;40.41
30856;BME280;17570;0.000;0.000;2023-02-24T02:29:58;96988.58;;;13.99;40.48
30856;BME280;17570;0.000;0.000;2023-02-24T02:35:11;96992.16;;;13.88;40.65
30856;BME280;17570;0.000;0.000;2023-02-24T02:37:51;96989.86;;;13.85;40.37
30856;BME280;17570;0.000;0.000;2023-02-24T02:43:00;97002.08;;;13.75;40.48
30856;BME280;17570;0.000;0.000;2023-02-24T02:45:28;97003.87;;;13.74;40.34
30856;BME280;17570;0.000;0.000;2023-02-24T02:47:58;97006.89;;;13.70;40.49
30856;BME280;17570;0.000;0.000;2023-02-24T02:50:26;97004.44;;;13.68;40.38
30856;BME280;17570;0.000;0.000;2023-02-24T02:53:01;97005.41;;;13.67;40.45
30856;BME280;17570;0.000;0.000;2023-02-24T02:58:07;96999.49;;;13.65;40.48
30856;BME280;17570;0.000;0.000;2023-02-24T03:00:38;97008.97;;;13.57;40.92
30856;BME280;17570;0.000;0.000;2023-02-24T03:03:08;97006.91;;;13.60;40.90
30856;BME280;17570;0.000;0.000;2023-02-24T03:05:36;97003.48;;;13.60;40.93
30856;BME280;17570;0.000;0.000;2023-02-24T03:08:03;97008.03;;;13.58;40.85
30856;BME280;17570;0.000;0.000;2023-02-24T03:10:33;97008.03;;;13.58;40.93
30856;BME280;17570;0.000;0.000;2023-02-24T03:13:02;97009.67;;;13.59;40.90
30856;BME280;17570;0.000;0.000;2023-02-24T03:15:31;97001.58;;;13.62;40.87
30856;BME280;17570;0.000;0.000;2023-02-24T03:18:03;97004.86;;;13.64;40.76
30856;BME280;17570;0.000;0.000;2023-02-24T03:20:35;97001.84;;;13.59;40.73
30856;BME280;17570;0.000;0.000;2023-02-24T03:23:03;96997.62;;;13.48;40.74
30856;BME280;17570;0.000;0.000;2023-02-24T03:25:38;96993.48;;;13.45;40.79
30856;BME280;17570;0.000;0.000;2023-02-24T03:31:01;97002.84;;;13.38;40.89
30856;BME280;17570;0.000;0.000;2023-02-24T03:33:31;96988.97;;;13.28;41.09
30856;BME280;17570;0.000;0.000;2023-02-24T03:35:57;97001.33;;;13.26;41.13
30856;BME280;17570;0.000;0.000;2023-02-24T03:38:27;96988.03;;;13.29;40.86
30856;BME280;17570;0.000;0.000;2023-02-24T03:40:56;96990.48;;;13.31;40.87
30856;BME280;17570;0.000;0.000;2023-02-24T03:43:29;96996.67;;;13.30;40.98
30856;BME280;17570;0.000;0.000;2023-02-24T03:45:58;96986.09;;;13.31;41.10
30856;BME280;17570;0.000;0.000;2023-02-24T03:48:28;96987.74;;;13.22;41.02
30856;BME280;17570;0.000;0.000;2023-02-24T03:50:56;96992.13;;;13.22;40.81
30856;BME280;17570;0.000;0.000;2023-02-24T04:01:24;96983.17;;;13.05;41.27
30856;BME280;17570;0.000;0.000;2023-02-24T04:03:58;96980.72;;;13.03;41.26
30856;BME280;17570;0.000;0.000;2023-02-24T04:14:40;96969.33;;;12.95;41.69
30856;BME280;17570;0.000;0.000;2023-02-24T04:17:06;96959.73;;;12.95;41.77
30856;BME280;17570;0.000;0.000;2023-02-24T04:19:36;96967.13;;;13.00;41.78
30856;BME280;17570;0.000;0.000;2023-02-24T04:22:06;96953.02;;;13.02;41.64
30856;BME280;17570;0.000;0.000;2023-02-24T04:24:37;96953.02;;;13.02;41.64
30856;BME280;17570;0.000;0.000;2023-02-24T04:27:06;96955.62;;;13.02;41.56
30856;BME280;17570;0.000;0.000;2023-02-24T04:29:42;96949.45;;;13.03;41.56
30856;BME280;17570;0.000;0.000;2023-02-24T04:32:07;96944.65;;;12.99;41.56
30856;BME280;17570;0.000;0.000;2023-02-24T04:34:37;96947.11;;;13.00;41.50
30856;BME280;17570;0.000;0.000;2023-02-24T04:37:06;96944.50;;;13.00;41.53
30856;BME280;17570;0.000;0.000;2023-02-24T04:39:33;96948.62;;;13.03;41.47
30856;BME280;17570;0.000;0.000;2023-02-24T04:42:05;96945.20;;;13.02;41.45
30856;BME280;17570;0.000;0.000;2023-02-24T04:44:32;96942.31;;;12.96;41.51
30856;BME280;17570;0.000;0.000;2023-02-24T04:47:00;96938.63;;;12.98;41.45
30856;BME280;17570;0.000;0.000;2023-02-24T04:49:29;96942.31;;;12.96;41.49
30856;BME280;17570;0.000;0.000;2023-02-24T04:51:56;96943.42;;;12.93;41.51
30856;BME280;17570;0.000;0.000;2023-02-24T04:54:24;96942.45;;;12.94;41.71
30856;BME280;17570;0.000;0.000;2023-02-24T04:56:51;96936.15;;;13.16;43.67
30856;BME280;17570;0.000;0.000;2023-02-24T04:59:20;96938.45;;;13.19;44.84
30856;BME280;17570;0.000;0.000;2023-02-24T05:01:50;96927.91;;;13.21;44.50
30856;BME280;17570;0.000;0.000;2023-02-24T05:04:19;96927.91;;;13.21;44.28
30856;BME280;17570;0.000;0.000;2023-02-24T05:06:46;96922.97;;;13.18;44.15
30856;BME280;17570;0.000;0.000;2023-02-24T05:09:15;96926.81;;;13.14;43.96
30856;BME280;17570;0.000;0.000;2023-02-24T05:11:43;96937.37;;;13.12;43.62
30856;BME280;17570;0.000;0.000;2023-02-24T05:14:12;96929.16;;;13.07;43.41
30856;BME280;17570;0.000;0.000;2023-02-24T05:16:42;96929.02;;;13.09;43.02
30856;BME280;17570;0.000;0.000;2023-02-24T05:19:11;96932.73;;;13.06;43.01
30856;BME280;17570;0.000;0.000;2023-02-24T05:21:57;96934.64;;;13.04;42.84
30856;BME280;17570;0.000;0.000;2023-02-24T05:24:25;96932.30;;;12.91;43.29
30856;BME280;17570;0.000;0.000;2023-02-24T05:26:55;96929.58;;;12.93;43.32
30856;BME280;17570;0.000;0.000;2023-02-24T05:29:26;96929.98;;;12.98;43.13
30856;BME280;17570;0.000;0.000;2023-02-24T05:31:58;96930.13;;;12.96;43.07
30856;BME280;17570;0.000;0.000;2023-02-24T05:34:28;96931.22;;;12.94;42.93
30856;BME280;17570;0.000;0.000;2023-02-24T05:36:56;96927.09;;;12.91;42.95
30856;BME280;17570;0.000;0.000;2023-02-24T05:39:24;96930.66;;;12.90;42.92
30856;BME280;17570;0.000;0.000;2023-02-24T05:41:51;96932.45;;;12.90;42.94
30856;BME280;17570;0.000;0.000;2023-02-24T05:44:20;96933.27;;;12.90;43.06
30856;BME280;17570;0.000;0.000;2023-02-24T05:46:49;96941.08;;;12.90;43.02
30856;BME280;17570;0.000;0.000;2023-02-24T05:49:19;96931.48;;;12.91;43.21
30856;BME280;17570;0.000;0.000;2023-02-24T05:51:49;96939.44;;;12.89;43.25
30856;BME280;17570;0.000;0.000;2023-02-24T05:54:26;96937.80;;;12.88;43.27
30856;BME280;17570;0.000;0.000;2023-02-24T05:56:49;96938.77;;;12.87;43.32
30856;BME280;17570;0.000;0.000;2023-02-24T05:59:16;96943.02;;;12.88;43.28
30856;BME280;17570;0.000;0.000;2023-02-24T06:01:46;96946.29;;;12.90;43.10
30856;BME280;17570;0.000;0.000;2023-02-24T06:04:14;96951.39;;;12.92;42.95
30856;BME280;17570;0.000;0.000;2023-02-24T06:07:00;96953.44;;;12.88;43.23
30856;BME280;17570;0.000;0.000;2023-02-24T06:09:30;96953.28;;;12.80;43.46
30856;BME280;17570;0.000;0.000;2023-02-24T06:11:57;96953.14;;;12.82;43.41
30856;BME280;17570;0.000;0.000;2023-02-24T06:14:24;96954.66;;;12.84;43.86
30856;BME280;17570;0.000;0.000;2023-02-24T06:16:53;96958.91;;;12.85;43.29
30856;BME280;17570;0.000;0.000;2023-02-24T06:19:21;96953.95;;;12.82;43.39
30856;BME280;17570;0.000;0.000;2023-02-24T06:21:50;96950.42;;;12.83;43.57
30856;BME280;17570;0.000;0.000;2023-02-24T06:24:18;96954.40;;;12.87;43.57
30856;BME280;17570;0.000;0.000;2023-02-24T06:26:45;96970.97;;;12.86;43.65
30856;BME280;17570;0.000;0.000;2023-02-24T06:29:15;96970.44;;;12.83;43.74
30856;BME280;17570;0.000;0.000;2023-02-24T06:31:43;96963.70;;;12.80;43.73
30856;BME280;17570;0.000;0.000;2023-02-24T06:34:11;96957.41;;;12.83;43.92
30856;BME280;17570;0.000;0.000;2023-02-24T06:36:40;96965.91;;;12.85;43.98
30856;BME280;17570;0.000;0.000;2023-02-24T06:39:09;96954.40;;;12.87;43.96
30856;BME280;17570;0.000;0.000;2023-02-24T06:41:38;96958.91;;;12.85;44.04
30856;BME280;17570;0.000;0.000;2023-02-24T06:44:05;96957.27;;;12.84;44.33
30856;BME280;17570;0.000;0.000;2023-02-24T06:46:35;96949.30;;;12.86;44.43
30856;BME280;17570;0.000;0.000;2023-02-24T06:49:04;96945.88;;;12.95;44.53
30856;BME280;17570;0.000;0.000;2023-02-24T06:51:31;96950.68;;;12.99;44.44
30856;BME280;17570;0.000;0.000;2023-02-24T06:53:58;96938.88;;;13.05;44.35
30856;BME280;17570;0.000;0.000;2023-02-24T06:56:28;96936.27;;;13.15;44.24
30856;BME280;17570;0.000;0.000;2023-02-24T06:58:57;96941.64;;;13.23;44.12
30856;BME280;17570;0.000;0.000;2023-02-24T07:01:25;96941.38;;;13.26;43.99
30856;BME280;17570;0.000;0.000;2023-02-24T07:03:54;96941.62;;;13.33;44.09
30856;BME280;17570;0.000;0.000;2023-02-24T07:06:30;96941.91;;;13.39;43.94
30856;BME280;17570;0.000;0.000;2023-02-24T07:09:03;96938.91;;;13.34;44.01
30856;BME280;17570;0.000;0.000;2023-02-24T07:11:33;96934.09;;;13.39;43.76
30856;BME280;17570;0.000;0.000;2023-02-24T07:14:00;96936.95;;;13.46;43.92
30856;BME280;17570;0.000;0.000;2023-02-24T07:16:30;96934.34;;;13.46;43.96
30856;BME280;17570;0.000;0.000;2023-02-24T07:19:01;96929.41;;;13.52;43.93
30856;BME280;17570;0.000;0.000;2023-02-24T07:21:29;96928.83;;;13.59;43.75
30856;BME280;17570;0.000;0.000;2023-02-24T07:23:59;96931.16;;;13.62;43.77
30856;BME280;17570;0.000;0.000;2023-02-24T07:26:28;96924.55;;;13.67;43.61
30856;BME280;17570;0.000;0.000;2023-02-24T07:29:00;96913.54;;;13.73;43.47
30856;BME280;17570;0.000;0.000;2023-02-24T07:31:29;96922.88;;;13.76;43.44
30856;BME280;17570;0.000;0.000;2023-02-24T07:34:02;96925.88;;;13.81;43.26
30856;BME280;17570;0.000;0.000;2023-02-24T07:36:29;96923.94;;;13.83;43.24
30856;BME280;17570;0.000;0.000;2023-02-24T07:38:58;96923.35;;;13.89;43.37
30856;BME280;17570;0.000;0.000;2023-02-24T07:41:27;96923.08;;;13.92;43.30
30856;BME280;17570;0.000;0.000;2023-02-24T07:43:55;96926.45;;;14.02;43.49
30856;BME280;17570;0.000;0.000;2023-02-24T07:46:25;96932.13;;;14.25;44.93
30856;BME280;17570;0.000;0.000;2023-02-24T07:48:54;96931.02;;;14.28;45.22
30856;BME280;17570;0.000;0.000;2023-02-24T07:51:22;96919.16;;;14.34;44.63
30856;BME280;17570;0.000;0.000;2023-02-24T07:53:51;96920.74;;;14.44;44.03
30856;BME280;17570;0.000;0.000;2023-02-24T07:56:20;96917.59;;;14.50;43.48
30856;BME280;17570;0.000;0.000;2023-02-24T07:58:49;96918.91;;;14.54;43.46
30856;BME280;17570;0.000;0.000;2023-02-24T08:01:18;96920.27;;;14.59;43.54
30856;BME280;17570;0.000;0.000;2023-02-24T08:03:49;96911.33;;;14.61;43.78
30856;BME280;17570;0.000;0.000;2023-02-24T08:06:17;96902.52;;;14.62;43.65
30856;BME280;17570;0.000;0.000;2023-02-24T08:08:47;96910.88;;;14.66;43.91
30856;BME280;17570;0.000;0.000;2023-02-24T08:11:29;96914.69;;;14.71;43.50
30856;BME280;17570;0.000;0.000;2023-02-24T08:14:04;96897.05;;;14.73;43.41
30856;BME280;17570;0.000;0.000;2023-02-24T08:16:42;96907.06;;;14.78;43.39
30856;BME280;17570;0.000;0.000;2023-02-24T08:19:11;96893.09;;;14.87;42.93
30856;BME280;17570;0.000;0.000;2023-02-24T08:21:39;96894.97;;;14.95;42.86
30856;BME280;17570;0.000;0.000;2023-02-24T08:24:20;96900.27;;;15.03;42.82
30856;BME280;17570;0.000;0.000;2023-02-24T08:26:44;96895.92;;;15.12;42.92
30856;BME280;17570;0.000;0.000;2023-02-24T08:29:11;96900.02;;;15.14;42.50
30856;BME280;17570;0.000;0.000;2023-02-24T08:31:39;96891.95;;;15.25;42.21
30856;BME280;17570;0.000;0.000;2023-02-24T08:34:08;96893.94;;;15.31;41.97
30856;BME280;17570;0.000;0.000;2023-02-24T08:36:36;96889.59;;;15.40;42.16
30856;BME280;17570;0.000;0.000;2023-02-24T08:39:03;96879.31;;;15.47;42.16
30856;BME280;17570;0.000;0.000;2023-02-24T08:41:31;96887.05;;;15.56;41.93
30856;BME280;17570;0.000;0.000;2023-02-24T08:44:13;96880.41;;;15.62;41.75
30856;BME280;17570;0.000;0.000;2023-02-24T08:46:43;96866.48;;;15.62;41.83
30856;BME280;17570;0.000;0.000;2023-02-24T08:49:11;96862.00;;;15.72;41.68
30856;BME280;17570;0.000;0.000;2023-02-24T08:51:40;96860.22;;;15.80;41.32
30856;BME280;17570;0.000;0.000;2023-02-24T08:54:15;96847.34;;;15.87;41.36
30856;BME280;17570;0.000;0.000;2023-02-24T08:56:41;96848.50;;;15.93;41.29
30856;BME280;17570;0.000;0.000;2023-02-24T08:59:12;96843.30;;;16.01;41.53
30856;BME280;17570;0.000;0.000;2023-02-24T09:01:58;96839.30;;;16.39;41.78
30856;BME280;17570;0.000;0.000;2023-02-24T09:04:36;96836.02;;;16.45;42.86
30856;BME280;17570;0.000;0.000;2023-02-24T09:07:03;96846.02;;;16.50;43.79
30856;BME280;17570;0.000;0.000;2023-02-24T09:09:33;96840.14;;;16.56;41.53
30856;BME280;17570;0.000;0.000;2023-02-24T09:12:02;96849.66;;;16.65;41.00
30856;BME280;17570;0.000;0.000;2023-02-24T09:14:30;96839.64;;;16.69;41.46
30856;BME280;17570;0.000;0.000;2023-02-24T09:16:59;96841.16;;;16.96;42.15
30856;BME280;17570;0.000;0.000;2023-02-24T09:19:34;96839.84;;;17.08;41.30
30856;BME280;17570;0.000;0.000;2023-02-24T09:22:11;96831.30;;;17.06;41.02
30856;BME280;17570;0.000;0.000;2023-02-24T09:24:43;96821.48;;;17.00;41.17
30856;BME280;17570;0.000;0.000;2023-02-24T09:27:11;96816.25;;;17.00;40.99
30856;BME280;17570;0.000;0.000;2023-02-24T09:29:40;96810.00;;;17.09;41.25
30856;BME280;17570;0.000;0.000;2023-02-24T09:32:11;96800.01;;;17.13;40.53
30856;BME280;17570;0.000;0.000;2023-02-24T09:34:40;96801.31;;;17.17;40.46
30856;BME280;17570;0.000;0.000;2023-02-24T09:37:13;96798.66;;;17.25;40.05
30856;BME280;17570;0.000;0.000;2023-02-24T09:39:53;96799.45;;;17.33;39.69
30856;BME280;17570;0.000;0.000;2023-02-24T09:42:27;96789.14;;;17.32;39.72
30856;BME280;17570;0.000;0.000;2023-02-24T09:47:45;96777.76;;;17.48;39.28
30856;BME280;17570;0.000;0.000;2023-02-24T09:52:54;96774.48;;;17.54;39.02
30856;BME280;17570;0.000;0.000;2023-02-24T09:55:32;96767.70;;;17.68;38.87
30856;BME280;17570;0.000;0.000;2023-02-24T09:58:05;96763.71;;;17.80;38.14
30856;BME280;17570;0.000;0.000;2023-02-24T10:00:49;96763.16;;;17.93;38.71
30856;BME280;17570;0.000;0.000;2023-02-24T10:03:15;96751.28;;;18.05;38.80
30856;BME280;17570;0.000;0.000;2023-02-24T10:06:02;96746.56;;;18.23;39.37
30856;BME280;17570;0.000;0.000;2023-02-24T10:08:33;96742.84;;;18.32;38.30
30856;BME280;17570;0.000;0.000;2023-02-24T10:10:59;96737.01;;;18.45;37.93
30856;BME280;17570;0.000;0.000;2023-02-24T10:13:28;96743.49;;;18.57;38.35
30856;BME280;17570;0.000;0.000;2023-02-24T10:15:58;96731.56;;;18.70;38.35
30856;BME280;17570;0.000;0.000;2023-02-24T10:18:29;96714.37;;;18.82;38.70
30856;BME280;17570;0.000;0.000;2023-02-24T10:23:49;96700.95;;;19.06;37.92
30856;BME280;17570;0.000;0.000;2023-02-24T10:26:18;96704.50;;;19.14;37.77
30856;BME280;17570;0.000;0.000;2023-02-24T10:28:52;96693.96;;;19.28;37.75
30856;BME280;17570;0.000;0.000;2023-02-24T10:31:26;96680.06;;;19.49;38.33
30856;BME280;17570;0.000;0.000;2023-02-24T10:33:55;96688.66;;;19.73;38.55
30856;BME280;17570;0.000;0.000;2023-02-24T10:36:21;96682.77;;;19.92;38.87
30856;BME280;17570;0.000;0.000;2023-02-24T10:38:53;96679.06;;;20.08;37.83
30856;BME280;17570;0.000;0.000;2023-02-24T10:41:21;96674.48;;;20.17;37.86
30856;BME280;17570;0.000;0.000;2023-02-24T10:43:54;96670.14;;;20.30;37.08
30856;BME280;17570;0.000;0.000;2023-02-24T10:46:29;96660.80;;;20.49;37.02
30856;BME280;17570;0.000;0.000;2023-02-24T10:49:01;96667.65;;;20.72;37.33
30856;BME280;17570;0.000;0.000;2023-02-24T10:51:36;96658.43;;;20.89;36.95
30856;BME280;17570;0.000;0.000;2023-02-24T10:56:51;96651.96;;;21.33;37.21
30856;BME280;17570;0.000;0.000;2023-02-24T10:59:23;96647.16;;;21.50;36.93
30856;BME280;17570;0.000;0.000;2023-02-24T11:01:53;96645.80;;;21.80;36.72
30856;BME280;17570;0.000;0.000;2023-02-24T11:04:28;96638.16;;;22.12;36.39
30856;BME280;17570;0.000;0.000;2023-02-24T11:07:04;96633.05;;;22.50;36.06
30856;BME280;17570;0.000;0.000;2023-02-24T11:09:35;96620.59;;;22.90;36.75
30856;BME280;17570;0.000;0.000;2023-02-24T11:12:06;96622.77;;;23.13;36.62
30856;BME280;17570;0.000;0.000;2023-02-24T11:14:57;96621.41;;;23.42;36.06
30856;BME280;17570;0.000;0.000;2023-02-24T11:17:51;96621.30;;;23.62;35.44
30856;BME280;17570;0.000;0.000;2023-02-24T11:20:20;96613.05;;;23.84;34.30
30856;BME280;17570;0.000;0.000;2023-02-24T11:22:47;96611.39;;;24.14;34.16
30856;BME280;17570;0.000;0.000;2023-02-24T11:25:22;96604.28;;;24.40;32.92
30856;BME280;17570;0.000;0.000;2023-02-24T11:27:50;96612.81;;;24.67;32.28
30856;BME280;17570;0.000;0.000;2023-02-24T11:35:22;96595.02;;;25.23;31.21
30856;BME280;17570;0.000;0.000;2023-02-24T11:37:57;96588.06;;;25.40;30.73
30856;BME280;17570;0.000;0.000;2023-02-24T11:40:23;96581.66;;;25.59;30.26
30856;BME280;17570;0.000;0.000;2023-02-24T11:42:51;96589.61;;;25.78;30.39
30856;BME280;17570;0.000;0.000;2023-02-24T11:45:44;96594.17;;;26.01;30.04
30856;BME280;17570;0.000;0.000;2023-02-24T11:48:18;96595.37;;;26.16;29.63
30856;BME280;17570;0.000;0.000;2023-02-24T11:50:45;96590.05;;;26.16;29.62
30856;BME280;17570;0.000;0.000;2023-02-24T11:53:14;96587.50;;;26.22;28.92
30856;BME280;17570;0.000;0.000;2023-02-24T11:55:41;96578.02;;;26.26;27.90
30856;BME280;17570;0.000;0.000;2023-02-24T11:58:15;96582.06;;;26.28;27.53
30856;BME280;17570;0.000;0.000;2023-02-24T12:00:48;96571.54;;;26.22;26.77
30856;BME280;17570;0.000;0.000;2023-02-24T12:05:45;96576.72;;;25.93;26.10
30856;BME280;17570;0.000;0.000;2023-02-24T12:08:13;96577.44;;;25.70;25.99
30856;BME280;17570;0.000;0.000;2023-02-24T12:10:45;96572.38;;;25.50;26.04
30856;BME280;17570;0.000;0.000;2023-02-24T12:15:41;96559.75;;;25.34;27.13
30856;BME280;17570;0.000;0.000;2023-02-24T12:20:51;96559.41;;;25.12;26.78
30856;BME280;17570;0.000;0.000;2023-02-24T12:23:20;96554.89;;;24.94;27.20
30856;BME280;17570;0.000;0.000;2023-02-24T12:31:15;96549.39;;;24.77;26.91
30856;BME280;17570;0.000;0.000;2023-02-24T12:33:55;96544.88;;;24.96;27.41
30856;BME280;17570;0.000;0.000;2023-02-24T12:41:38;96536.90;;;25.44;27.58
30856;BME280;17570;0.000;0.000;2023-02-24T12:47:00;96532.69;;;25.07;27.10
30856;BME280;17570;0.000;0.000;2023-02-24T12:49:37;96539.06;;;24.87;27.73
30856;BME280;17570;0.000;0.000;2023-02-24T12:57:22;96532.47;;;24.90;27.49
30856;BME280;17570;0.000;0.000;2023-02-24T12:59:48;96527.77;;;25.10;27.99
30856;BME280;17570;0.000;0.000;2023-02-24T13:02:31;96530.95;;;25.31;28.26
30856;BME280;17570;0.000;0.000;2023-02-24T13:04:55;96534.30;;;25.68;28.35
30856;BME280;17570;0.000;0.000;2023-02-24T13:15:47;96524.06;;;25.83;26.60
30856;BME280;17570;0.000;0.000;2023-02-24T13:18:08;96523.22;;;25.71;26.28
30856;BME280;17570;0.000;0.000;2023-02-24T13:20:36;96522.86;;;25.67;26.12
30856;BME280;17570;0.000;0.000;2023-02-24T13:23:20;96517.06;;;25.59;26.08
30856;BME280;17570;0.000;0.000;2023-02-24T13:25:52;96518.53;;;25.43;26.38
30856;BME280;17570;0.000;0.000;2023-02-24T13:30:59;96520.61;;;24.92;27.57
30856;BME280;17570;0.000;0.000;2023-02-24T13:33:36;96522.04;;;24.77;27.97
30856;BME280;17570;0.000;0.000;2023-02-24T13:36:16;96517.31;;;24.60;28.48
30856;BME280;17570;0.000;0.000;2023-02-24T13:38:48;96512.14;;;24.47;28.69
30856;BME280;17570;0.000;0.000;2023-02-24T13:43:56;96502.45;;;24.16;29.11
30856;BME280;17570;0.000;0.000;2023-02-24T13:46:30;96505.16;;;24.09;29.50
30856;BME280;17570;0.000;0.000;2023-02-24T13:51:33;96503.72;;;23.88;29.81
30856;BME280;17570;0.000;0.000;2023-02-24T13:54:05;96505.03;;;23.79;30.05
30856;BME280;17570;0.000;0.000;2023-02-24T14:01:50;96498.02;;;23.60;29.54
30856;BME280;17570;0.000;0.000;2023-02-24T14:04:22;96488.64;;;23.57;29.21
30856;BME280;17570;0.000;0.000;2023-02-24T14:07:03;96491.69;;;23.61;29.21
30856;BME280;17570;0.000;0.000;2023-02-24T14:09:32;96486.58;;;23.59;29.08
30856;BME280;17570;0.000;0.000;2023-02-24T14:12:02;96499.66;;;23.54;29.00
30856;BME280;17570;0.000;0.000;2023-02-24T14:14:29;96489.68;;;23.56;29.19
30856;BME280;17570;0.000;0.000;2023-02-24T14:16:57;96497.63;;;23.56;29.09
30856;BME280;17570;0.000;0.000;2023-02-24T14:19:25;96491.30;;;23.57;29.22
30856;BME280;17570;0.000;0.000;2023-02-24T14:21:53;96493.36;;;23.55;29.19
30856;BME280;17570;0.000;0.000;2023-02-24T14:24:21;96498.05;;;23.53;29.13
30856;BME280;17570;0.000;0.000;2023-02-24T14:26:57;96484.86;;;23.47;29.43
30856;BME280;17570;0.000;0.000;2023-02-24T14:29:21;96487.77;;;23.38;29.53
30856;BME280;17570;0.000;0.000;2023-02-24T14:31:50;96485.59;;;23.29;29.69
30856;BME280;17570;0.000;0.000;2023-02-24T14:34:24;96485.67;;;23.15;30.17
30856;BME280;17570;0.000;0.000;2023-02-24T14:36:48;96491.60;;;23.11;30.65
30856;BME280;17570;0.000;0.000;2023-02-24T14:39:18;96490.84;;;23.04;30.67
30856;BME280;17570;0.000;0.000;2023-02-24T14:41:45;96486.38;;;22.98;30.86
30856;BME280;17570;0.000;0.000;2023-02-24T14:44:19;96492.52;;;22.91;31.20
30856;BME280;17570;0.000;0.000;2023-02-24T14:46:52;96484.80;;;22.90;31.22
30856;BME280;17570;0.000;0.000;2023-02-24T14:49:25;96488.88;;;22.79;32.70
30856;BME280;17570;0.000;0.000;2023-02-24T14:51:53;96494.66;;;23.08;32.99
30856;BME280;17570;0.000;0.000;2023-02-24T14:54:22;96492.22;;;23.13;32.90
30856;BME280;17570;0.000;0.000;2023-02-24T14:56:52;96492.86;;;23.08;32.71
30856;BME280;17570;0.000;0.000;2023-02-24T14:59:28;96494.13;;;22.99;32.63
30856;BME280;17570;0.000;0.000;2023-02-24T15:01:49;96487.45;;;22.90;32.50
30856;BME280;17570;0.000;0.000;2023-02-24T15:06:51;96491.34;;;22.74;32.63
30856;BME280;17570;0.000;0.000;2023-02-24T15:09:19;96490.13;;;22.70;32.57
30856;BME280;17570;0.000;0.000;2023-02-24T15:11:47;96488.73;;;22.68;32.38
30856;BME280;17570;0.000;0.000;2023-02-24T15:14:20;96493.23;;;22.60;32.66